createdAt,value
2017-03-28T00:00:28.865Z,1015.7
2017-03-28T00:01:09.370Z,1015.72
2017-03-28T00:01:49.879Z,1015.71
2017-03-28T00:02:30.403Z,1015.69
2017-03-28T00:03:10.923Z,1015.69
2017-03-28T00:03:51.418Z,1015.69
2017-03-28T00:04:31.924Z,1015.68
2017-03-28T00:05:12.448Z,1015.7
2017-03-28T00:05:52.955Z,1015.68
2017-03-28T00:06:33.465Z,1015.71
2017-03-28T00:07:13.985Z,1015.67
2017-03-28T00:07:54.488Z,1015.68
2017-03-28T00:08:34.990Z,1015.67
2017-03-28T00:09:15.491Z,1015.66
2017-03-28T00:09:55.997Z,1015.66
2017-03-28T00:10:36.515Z,1015.68
2017-03-28T00:11:17.014Z,1015.7
2017-03-28T00:11:57.526Z,1015.7
2017-03-28T00:12:38.058Z,1015.68
2017-03-28T00:13:18.572Z,1015.7
2017-03-28T00:13:59.085Z,1015.7
2017-03-28T00:14:39.598Z,1015.71
2017-03-28T00:15:20.096Z,1015.71
2017-03-28T00:16:00.628Z,1015.7
2017-03-28T00:16:41.140Z,1015.7
2017-03-28T00:17:21.648Z,1015.72
2017-03-28T00:18:02.157Z,1015.72
2017-03-28T00:18:42.677Z,1015.75
2017-03-28T00:19:23.199Z,1015.75
2017-03-28T00:20:03.693Z,1015.76
2017-03-28T00:20:44.187Z,1015.78
2017-03-28T00:21:24.713Z,1015.76
2017-03-28T00:22:05.226Z,1015.78
2017-03-28T00:22:45.729Z,1015.77
2017-03-28T00:23:26.233Z,1015.77
2017-03-28T00:24:06.750Z,1015.75
2017-03-28T00:24:47.251Z,1015.77
2017-03-28T00:25:27.775Z,1015.76
2017-03-28T00:26:08.293Z,1015.74
2017-03-28T00:26:48.804Z,1015.79
2017-03-28T00:27:29.302Z,1015.78
2017-03-28T00:28:09.806Z,1015.78
2017-03-28T00:28:50.311Z,1015.75
2017-03-28T00:29:30.816Z,1015.79
2017-03-28T00:30:11.356Z,1015.78
2017-03-28T00:30:51.873Z,1015.76
2017-03-28T00:31:32.378Z,1015.79
2017-03-28T00:32:12.905Z,1015.77
2017-03-28T00:32:53.451Z,1015.76
2017-03-28T00:33:33.952Z,1015.82
2017-03-28T00:34:14.457Z,1015.75
2017-03-28T00:34:54.966Z,1015.77
2017-03-28T00:35:35.479Z,1015.79
2017-03-28T00:36:15.982Z,1015.78
2017-03-28T00:36:56.490Z,1015.83
2017-03-28T00:37:36.987Z,1015.81
2017-03-28T00:38:17.489Z,1015.8
2017-03-28T00:38:58.006Z,1015.81
2017-03-28T00:39:38.515Z,1015.8
2017-03-28T00:40:19.015Z,1015.82
2017-03-28T00:40:59.543Z,1015.85
2017-03-28T00:41:40.050Z,1015.84
2017-03-28T00:42:20.576Z,1015.83
2017-03-28T00:43:01.119Z,1015.77
2017-03-28T00:43:41.620Z,1015.78
2017-03-28T00:44:22.132Z,1015.74
2017-03-28T00:46:16.178Z,1015.75
2017-03-28T00:46:56.636Z,1015.7
2017-03-28T00:47:37.156Z,1015.64
2017-03-28T00:48:17.669Z,1015.71
2017-03-28T00:48:58.188Z,1015.71
2017-03-28T00:49:38.686Z,1015.72
2017-03-28T00:50:19.206Z,1015.7
2017-03-28T00:50:59.707Z,1015.7
2017-03-28T00:51:40.202Z,1015.7
2017-03-28T00:52:20.710Z,1015.7
2017-03-28T00:53:01.232Z,1015.67
2017-03-28T00:53:41.760Z,1015.69
2017-03-28T00:54:22.249Z,1015.73
2017-03-28T00:55:02.757Z,1015.68
2017-03-28T00:55:43.314Z,1015.7
2017-03-28T00:56:23.811Z,1015.68
2017-03-28T00:57:04.308Z,1015.67
2017-03-28T00:57:44.821Z,1015.63
2017-03-28T00:58:25.323Z,1015.65
2017-03-28T00:59:05.849Z,1015.67
2017-03-28T00:59:46.354Z,1015.63
2017-03-28T01:00:26.870Z,1015.64
2017-03-28T01:01:07.371Z,1015.66
2017-03-28T01:01:47.887Z,1015.62
2017-03-28T01:02:28.404Z,1015.63
2017-03-28T01:03:08.924Z,1015.61
2017-03-28T01:03:49.438Z,1015.6
2017-03-28T01:04:29.954Z,1015.57
2017-03-28T01:05:10.438Z,1015.61
2017-03-28T01:05:50.956Z,1015.56
2017-03-28T01:06:31.468Z,1015.6
2017-03-28T01:07:11.988Z,1015.61
2017-03-28T01:07:52.502Z,1015.6
2017-03-28T01:08:33.038Z,1015.62
2017-03-28T01:09:13.534Z,1015.59
2017-03-28T01:09:54.054Z,1015.6
2017-03-28T01:10:34.568Z,1015.58
2017-03-28T01:11:15.094Z,1015.55
2017-03-28T01:11:55.606Z,1015.55
2017-03-28T01:12:36.112Z,1015.55
2017-03-28T01:13:16.610Z,1015.55
2017-03-28T01:13:57.129Z,1015.56
2017-03-28T01:14:37.642Z,1015.56
2017-03-28T01:15:18.149Z,1015.55
2017-03-28T01:15:58.648Z,1015.51
2017-03-28T01:16:39.166Z,1015.54
2017-03-28T01:17:19.705Z,1015.52
2017-03-28T01:18:00.178Z,1015.51
2017-03-28T01:18:40.671Z,1015.45
2017-03-28T01:19:21.177Z,1015.44
2017-03-28T01:20:01.655Z,1015.43
2017-03-28T01:20:42.171Z,1015.43
2017-03-28T01:21:22.686Z,1015.45
2017-03-28T01:22:03.202Z,1015.42
2017-03-28T01:22:43.703Z,1015.41
2017-03-28T01:23:24.218Z,1015.41
2017-03-28T01:24:04.726Z,1015.41
2017-03-28T01:24:45.231Z,1015.4
2017-03-28T01:25:25.756Z,1015.4
2017-03-28T01:26:06.268Z,1015.36
2017-03-28T01:26:46.788Z,1015.33
2017-03-28T01:27:27.326Z,1015.35
2017-03-28T01:28:07.820Z,1015.33
2017-03-28T01:28:48.337Z,1015.31
2017-03-28T01:29:28.845Z,1015.3
2017-03-28T01:30:09.338Z,1015.31
2017-03-28T01:30:49.842Z,1015.32
2017-03-28T01:31:30.363Z,1015.27
2017-03-28T01:32:10.870Z,1015.29
2017-03-28T01:32:51.391Z,1015.27
2017-03-28T01:33:31.917Z,1015.26
2017-03-28T01:34:12.457Z,1015.25
2017-03-28T01:34:52.964Z,1015.27
2017-03-28T01:35:33.474Z,1015.2
2017-03-28T01:36:13.986Z,1015.21
2017-03-28T01:36:54.503Z,1015.2
2017-03-28T01:37:35.002Z,1015.19
2017-03-28T01:38:15.517Z,1015.18
2017-03-28T01:38:56.021Z,1015.21
2017-03-28T01:39:36.537Z,1015.17
2017-03-28T01:40:17.036Z,1015.14
2017-03-28T01:40:57.549Z,1015.2
2017-03-28T01:41:38.057Z,1015.15
2017-03-28T01:42:18.567Z,1015.2
2017-03-28T01:42:59.098Z,1015.17
2017-03-28T01:43:39.600Z,1015.16
2017-03-28T01:44:20.124Z,1015.13
2017-03-28T01:45:00.631Z,1015.12
2017-03-28T01:45:41.151Z,1015.13
2017-03-28T01:46:21.656Z,1015.12
2017-03-28T01:47:02.178Z,1015.11
2017-03-28T01:47:42.698Z,1015.15
2017-03-28T01:48:23.200Z,1015.15
2017-03-28T01:49:03.692Z,1015.15
2017-03-28T01:49:44.215Z,1015.15
2017-03-28T01:50:24.689Z,1015.11
2017-03-28T01:51:05.219Z,1015.12
2017-03-28T01:51:45.720Z,1015.09
2017-03-28T01:52:26.216Z,1015.14
2017-03-28T01:53:06.711Z,1015.11
2017-03-28T01:53:47.241Z,1015.13
2017-03-28T01:54:27.745Z,1015.13
2017-03-28T01:55:08.266Z,1015.13
2017-03-28T01:55:48.788Z,1015.1
2017-03-28T01:56:29.296Z,1015.11
2017-03-28T01:57:09.809Z,1015.08
2017-03-28T01:57:50.322Z,1015.08
2017-03-28T01:58:30.836Z,1015.07
2017-03-28T01:59:11.348Z,1015.07
2017-03-28T01:59:51.854Z,1015.04
2017-03-28T02:00:32.373Z,1015.03
2017-03-28T02:01:12.883Z,1015.06
2017-03-28T02:01:53.399Z,1015.02
2017-03-28T02:02:33.913Z,1015.05
2017-03-28T02:03:14.440Z,1015.05
2017-03-28T02:03:54.944Z,1015.05
2017-03-28T02:04:35.465Z,1015.05
2017-03-28T02:05:15.945Z,1015.04
2017-03-28T02:05:56.448Z,1015.04
2017-03-28T02:06:36.950Z,1015.04
2017-03-28T02:07:17.460Z,1015.03
2017-03-28T02:07:57.969Z,1015.03
2017-03-28T02:08:38.482Z,1015.03
2017-03-28T02:09:18.997Z,1015.07
2017-03-28T02:09:59.498Z,1015.04
2017-03-28T02:10:40.024Z,1015.06
2017-03-28T02:11:20.563Z,1015.09
2017-03-28T02:12:01.083Z,1015.06
2017-03-28T02:12:41.583Z,1015.08
2017-03-28T02:13:22.094Z,1015.04
2017-03-28T02:14:02.605Z,1015.06
2017-03-28T02:14:43.111Z,1015.06
2017-03-28T02:15:23.616Z,1015.12
2017-03-28T02:16:04.146Z,1015.11
2017-03-28T02:16:44.650Z,1015.05
2017-03-28T02:17:25.156Z,1015.09
2017-03-28T02:18:05.656Z,1015.1
2017-03-28T02:18:46.158Z,1015.12
2017-03-28T02:19:26.664Z,1015.11
2017-03-28T02:20:07.213Z,1015.12
2017-03-28T02:20:47.742Z,1015.12
2017-03-28T02:21:28.257Z,1015.09
2017-03-28T02:22:08.776Z,1015.07
2017-03-28T02:22:49.264Z,1015.09
2017-03-28T02:23:29.770Z,1015.04
2017-03-28T02:24:10.268Z,1015.08
2017-03-28T02:24:50.778Z,1015.06
2017-03-28T02:25:31.288Z,1015.09
2017-03-28T02:26:11.813Z,1015.03
2017-03-28T02:26:52.319Z,1015.06
2017-03-28T02:27:32.849Z,1015.05
2017-03-28T02:28:13.330Z,1015.04
2017-03-28T02:28:53.843Z,1015.02
2017-03-28T02:29:34.340Z,1015.06
2017-03-28T02:30:14.863Z,1015.05
2017-03-28T02:30:55.389Z,1015.03
2017-03-28T02:31:35.908Z,1015.01
2017-03-28T02:32:16.413Z,1015.02
2017-03-28T02:32:56.932Z,1015.02
2017-03-28T02:33:37.445Z,1015
2017-03-28T02:34:17.958Z,1015.01
2017-03-28T02:34:58.446Z,1015
2017-03-28T02:35:38.961Z,1015.03
2017-03-28T02:36:19.465Z,1015.01
2017-03-28T02:36:59.992Z,1015.01
2017-03-28T02:37:40.519Z,1015.03
2017-03-28T02:38:21.020Z,1015.01
2017-03-28T02:39:01.547Z,1015.02
2017-03-28T02:39:42.061Z,1015.01
2017-03-28T02:40:22.572Z,1015
2017-03-28T02:41:03.083Z,1014.99
2017-03-28T02:41:43.611Z,1015
2017-03-28T02:42:24.101Z,1014.98
2017-03-28T02:43:04.621Z,1014.98
2017-03-28T02:43:45.140Z,1014.98
2017-03-28T02:44:25.664Z,1014.96
2017-03-28T02:45:06.192Z,1014.97
2017-03-28T02:45:46.707Z,1014.97
2017-03-28T02:46:27.205Z,1014.98
2017-03-28T02:47:07.737Z,1014.95
2017-03-28T02:47:48.235Z,1014.97
2017-03-28T02:48:28.718Z,1015
2017-03-28T02:49:09.215Z,1014.99
2017-03-28T02:49:49.744Z,1014.97
2017-03-28T02:50:30.246Z,1014.99
2017-03-28T02:51:10.760Z,1014.97
2017-03-28T02:51:51.265Z,1014.96
2017-03-28T02:52:31.797Z,1014.99
2017-03-28T02:53:12.319Z,1014.99
2017-03-28T02:53:52.845Z,1014.96
2017-03-28T02:54:33.347Z,1014.95
2017-03-28T02:55:13.846Z,1014.95
2017-03-28T02:55:54.364Z,1014.94
2017-03-28T02:56:34.888Z,1014.93
2017-03-28T02:57:15.405Z,1014.95
2017-03-28T02:57:55.901Z,1014.92
2017-03-28T02:58:36.429Z,1014.92
2017-03-28T02:59:16.926Z,1014.89
2017-03-28T02:59:57.443Z,1014.92
2017-03-28T03:00:37.947Z,1014.89
2017-03-28T03:01:18.442Z,1014.89
2017-03-28T03:01:58.955Z,1014.88
2017-03-28T03:02:39.471Z,1014.87
2017-03-28T03:03:19.999Z,1014.89
2017-03-28T03:04:00.511Z,1014.92
2017-03-28T03:04:41.019Z,1014.9
2017-03-28T03:05:21.547Z,1014.87
2017-03-28T03:06:02.041Z,1014.9
2017-03-28T03:06:42.537Z,1014.9
2017-03-28T03:07:23.042Z,1014.89
2017-03-28T03:08:03.558Z,1014.91
2017-03-28T03:08:44.081Z,1014.87
2017-03-28T03:09:24.591Z,1014.87
2017-03-28T03:10:05.086Z,1014.86
2017-03-28T03:10:45.602Z,1014.83
2017-03-28T03:11:26.109Z,1014.87
2017-03-28T03:12:06.636Z,1014.87
2017-03-28T03:12:47.137Z,1014.87
2017-03-28T03:13:27.626Z,1014.88
2017-03-28T03:14:08.130Z,1014.89
2017-03-28T03:14:48.663Z,1014.92
2017-03-28T03:15:29.157Z,1014.9
2017-03-28T03:16:09.656Z,1014.86
2017-03-28T03:16:50.178Z,1014.86
2017-03-28T03:17:30.680Z,1014.84
2017-03-28T03:18:11.193Z,1014.86
2017-03-28T03:18:51.761Z,1014.86
2017-03-28T03:19:32.309Z,1014.87
2017-03-28T03:20:12.851Z,1014.88
2017-03-28T03:20:53.363Z,1014.82
2017-03-28T03:21:33.912Z,1014.84
2017-03-28T03:22:14.424Z,1014.85
2017-03-28T03:22:54.945Z,1014.88
2017-03-28T03:23:35.481Z,1014.85
2017-03-28T03:24:16.000Z,1014.84
2017-03-28T03:24:56.461Z,1014.86
2017-03-28T03:25:36.976Z,1014.88
2017-03-28T03:26:17.499Z,1014.9
2017-03-28T03:26:58.070Z,1014.85
2017-03-28T03:27:38.564Z,1014.87
2017-03-28T03:28:19.039Z,1014.87
2017-03-28T03:28:59.579Z,1014.89
2017-03-28T03:29:40.146Z,1014.91
2017-03-28T03:30:20.590Z,1014.88
2017-03-28T03:31:01.123Z,1014.87
2017-03-28T03:31:41.684Z,1014.85
2017-03-28T03:32:22.174Z,1014.84
2017-03-28T03:33:02.677Z,1014.82
2017-03-28T03:33:43.304Z,1014.88
2017-03-28T03:34:23.718Z,1014.87
2017-03-28T03:35:04.228Z,1014.84
2017-03-28T03:35:44.751Z,1014.84
2017-03-28T03:36:25.285Z,1014.84
2017-03-28T03:37:05.829Z,1014.84
2017-03-28T03:37:46.338Z,1014.87
2017-03-28T03:38:26.870Z,1014.85
2017-03-28T03:39:07.401Z,1014.87
2017-03-28T03:39:47.930Z,1014.87
2017-03-28T03:40:28.501Z,1014.88
2017-03-28T03:41:08.991Z,1014.86
2017-03-28T03:41:49.470Z,1014.9
2017-03-28T03:42:30.036Z,1014.89
2017-03-28T03:43:10.570Z,1014.89
2017-03-28T03:43:51.148Z,1014.9
2017-03-28T03:44:31.679Z,1014.93
2017-03-28T03:45:12.184Z,1014.93
2017-03-28T03:45:52.718Z,1014.91
2017-03-28T03:46:33.239Z,1014.92
2017-03-28T03:47:13.913Z,1014.89
2017-03-28T03:47:54.429Z,1014.92
2017-03-28T03:48:34.994Z,1014.91
2017-03-28T03:49:15.516Z,1014.91
2017-03-28T03:49:56.121Z,1014.88
2017-03-28T03:50:36.539Z,1014.86
2017-03-28T03:51:17.076Z,1014.86
2017-03-28T03:51:57.643Z,1014.87
2017-03-28T03:52:38.165Z,1014.87
2017-03-28T03:53:18.699Z,1014.88
2017-03-28T03:54:00.263Z,1014.89
2017-03-28T03:54:40.773Z,1014.87
2017-03-28T03:55:21.271Z,1014.89
2017-03-28T03:56:01.802Z,1014.87
2017-03-28T03:56:42.303Z,1014.89
2017-03-28T03:57:22.814Z,1014.89
2017-03-28T03:58:03.340Z,1014.91
2017-03-28T03:58:43.832Z,1014.9
2017-03-28T03:59:24.337Z,1014.9
2017-03-28T04:00:04.856Z,1014.89
2017-03-28T04:00:45.377Z,1014.9
2017-03-28T04:01:25.900Z,1014.88
2017-03-28T04:02:06.449Z,1014.9
2017-03-28T04:02:46.988Z,1014.9
2017-03-28T04:03:27.503Z,1014.9
2017-03-28T04:04:08.087Z,1014.9
2017-03-28T04:04:48.594Z,1014.92
2017-03-28T04:05:29.156Z,1014.89
2017-03-28T04:06:09.820Z,1014.89
2017-03-28T04:06:50.335Z,1014.88
2017-03-28T04:07:30.854Z,1014.88
2017-03-28T04:08:11.322Z,1014.85
2017-03-28T04:08:51.829Z,1014.87
2017-03-28T04:09:32.340Z,1014.91
2017-03-28T04:10:12.857Z,1014.91
2017-03-28T04:10:53.354Z,1014.94
2017-03-28T04:11:33.861Z,1014.93
2017-03-28T04:12:14.358Z,1014.9
2017-03-28T04:12:54.850Z,1014.95
2017-03-28T04:13:35.376Z,1014.93
2017-03-28T04:14:15.923Z,1014.92
2017-03-28T04:14:56.460Z,1014.89
2017-03-28T04:15:36.986Z,1014.91
2017-03-28T04:16:17.511Z,1014.92
2017-03-28T04:16:58.071Z,1014.9
2017-03-28T04:17:38.643Z,1014.9
2017-03-28T04:18:19.156Z,1014.92
2017-03-28T04:18:59.697Z,1014.92
2017-03-28T04:19:40.216Z,1014.91
2017-03-28T04:20:20.750Z,1014.95
2017-03-28T04:21:01.301Z,1014.91
2017-03-28T04:21:41.778Z,1014.91
2017-03-28T04:22:22.293Z,1014.92
2017-03-28T04:23:02.834Z,1014.92
2017-03-28T04:23:43.350Z,1014.95
2017-03-28T04:24:23.864Z,1014.91
2017-03-28T04:25:04.376Z,1014.93
2017-03-28T04:25:44.945Z,1014.95
2017-03-28T04:26:25.406Z,1014.97
2017-03-28T04:27:05.934Z,1014.97
2017-03-28T04:27:46.640Z,1014.95
2017-03-28T04:28:27.080Z,1014.95
2017-03-28T04:29:07.536Z,1014.93
2017-03-28T04:29:48.105Z,1014.97
2017-03-28T04:30:28.722Z,1015
2017-03-28T04:31:09.237Z,1014.99
2017-03-28T04:31:49.786Z,1014.94
2017-03-28T04:32:30.344Z,1014.95
2017-03-28T04:33:10.970Z,1014.94
2017-03-28T04:33:51.613Z,1014.97
2017-03-28T04:34:32.159Z,1014.96
2017-03-28T04:35:12.675Z,1015.04
2017-03-28T04:35:53.199Z,1015
2017-03-28T04:36:33.747Z,1014.99
2017-03-28T04:37:14.273Z,1014.97
2017-03-28T04:37:54.751Z,1014.99
2017-03-28T04:38:35.311Z,1015.01
2017-03-28T04:39:15.914Z,1015.03
2017-03-28T04:39:56.477Z,1015.03
2017-03-28T04:40:36.959Z,1015.04
2017-03-28T04:41:17.464Z,1015.04
2017-03-28T04:41:57.962Z,1015.01
2017-03-28T04:42:38.487Z,1015.01
2017-03-28T04:43:19.035Z,1015.02
2017-03-28T04:43:59.547Z,1015.02
2017-03-28T04:44:40.053Z,1015.02
2017-03-28T04:45:20.634Z,1015.03
2017-03-28T04:46:01.181Z,1014.98
2017-03-28T04:46:41.660Z,1015
2017-03-28T04:47:22.152Z,1015.02
2017-03-28T04:48:02.710Z,1014.99
2017-03-28T04:48:43.216Z,1014.97
2017-03-28T04:49:23.766Z,1015.02
2017-03-28T04:50:04.340Z,1015.04
2017-03-28T04:50:44.947Z,1015.03
2017-03-28T04:51:25.473Z,1015.04
2017-03-28T04:52:05.988Z,1015.02
2017-03-28T04:52:46.489Z,1015.05
2017-03-28T04:53:27.015Z,1015.05
2017-03-28T04:54:07.577Z,1015.04
2017-03-28T04:54:48.057Z,1015.09
2017-03-28T04:55:28.557Z,1015.07
2017-03-28T04:56:09.095Z,1015.12
2017-03-28T04:56:49.606Z,1015.11
2017-03-28T04:57:30.177Z,1015.07
2017-03-28T04:58:10.753Z,1015.1
2017-03-28T04:58:51.230Z,1015.06
2017-03-28T04:59:31.740Z,1015.1
2017-03-28T05:00:12.234Z,1015.08
2017-03-28T05:00:52.759Z,1015.08
2017-03-28T05:01:33.261Z,1015.1
2017-03-28T05:02:13.788Z,1015.07
2017-03-28T05:02:54.348Z,1015.1
2017-03-28T05:03:34.843Z,1015.14
2017-03-28T05:04:15.330Z,1015.11
2017-03-28T05:04:55.871Z,1015.12
2017-03-28T05:05:36.406Z,1015.1
2017-03-28T05:06:16.903Z,1015.08
2017-03-28T05:06:57.457Z,1015.09
2017-03-28T05:07:38.007Z,1015.11
2017-03-28T05:08:18.533Z,1015.11
2017-03-28T05:08:59.081Z,1015.12
2017-03-28T05:09:39.605Z,1015.12
2017-03-28T05:10:20.201Z,1015.14
2017-03-28T05:11:00.735Z,1015.13
2017-03-28T05:11:41.232Z,1015.15
2017-03-28T05:12:21.730Z,1015.09
2017-03-28T05:13:02.261Z,1015.14
2017-03-28T05:13:42.819Z,1015.12
2017-03-28T05:14:23.341Z,1015.09
2017-03-28T05:15:03.836Z,1015.1
2017-03-28T05:15:44.414Z,1015.16
2017-03-28T05:16:24.933Z,1015.12
2017-03-28T05:17:05.400Z,1015.09
2017-03-28T05:17:45.959Z,1015.08
2017-03-28T05:18:26.476Z,1015.08
2017-03-28T05:19:06.966Z,1015.1
2017-03-28T05:19:47.488Z,1015.1
2017-03-28T05:20:28.108Z,1015.14
2017-03-28T05:21:08.714Z,1015.16
2017-03-28T05:21:49.232Z,1015.15
2017-03-28T05:22:29.762Z,1015.16
2017-03-28T05:23:10.312Z,1015.14
2017-03-28T05:23:50.823Z,1015.14
2017-03-28T05:24:31.342Z,1015.2
2017-03-28T05:25:11.832Z,1015.19
2017-03-28T05:25:52.371Z,1015.16
2017-03-28T05:26:32.848Z,1015.21
2017-03-28T05:27:13.618Z,1015.18
2017-03-28T05:27:54.170Z,1015.17
2017-03-28T05:28:34.668Z,1015.17
2017-03-28T05:29:15.191Z,1015.16
2017-03-28T05:29:55.691Z,1015.16
2017-03-28T05:30:36.196Z,1015.15
2017-03-28T05:31:16.695Z,1015.14
2017-03-28T05:31:57.218Z,1015.16
2017-03-28T05:32:37.731Z,1015.2
2017-03-28T05:33:18.226Z,1015.22
2017-03-28T05:33:58.747Z,1015.2
2017-03-28T05:34:39.230Z,1015.21
2017-03-28T05:35:19.766Z,1015.18
2017-03-28T05:36:00.260Z,1015.23
2017-03-28T05:36:40.770Z,1015.23
2017-03-28T05:37:21.291Z,1015.23
2017-03-28T05:38:01.799Z,1015.2
2017-03-28T05:38:42.356Z,1015.23
2017-03-28T05:39:22.833Z,1015.2
2017-03-28T05:40:03.384Z,1015.21
2017-03-28T05:40:43.896Z,1015.22
2017-03-28T05:41:24.401Z,1015.21
2017-03-28T05:42:04.920Z,1015.22
2017-03-28T05:42:45.466Z,1015.2
2017-03-28T05:43:26.015Z,1015.19
2017-03-28T05:44:06.504Z,1015.21
2017-03-28T05:44:47.030Z,1015.23
2017-03-28T05:45:27.516Z,1015.29
2017-03-28T05:46:08.044Z,1015.29
2017-03-28T05:46:48.532Z,1015.27
2017-03-28T05:47:29.060Z,1015.27
2017-03-28T05:48:09.540Z,1015.29
2017-03-28T05:48:50.046Z,1015.37
2017-03-28T05:49:30.565Z,1015.33
2017-03-28T05:50:11.344Z,1015.28
2017-03-28T05:50:52.011Z,1015.29
2017-03-28T05:51:32.516Z,1015.35
2017-03-28T05:52:13.068Z,1015.32
2017-03-28T05:52:53.571Z,1015.38
2017-03-28T05:53:34.068Z,1015.35
2017-03-28T05:54:14.590Z,1015.34
2017-03-28T05:54:55.110Z,1015.31
2017-03-28T05:55:35.619Z,1015.35
2017-03-28T05:56:16.134Z,1015.36
2017-03-28T05:56:56.654Z,1015.37
2017-03-28T05:57:37.160Z,1015.35
2017-03-28T05:58:17.653Z,1015.38
2017-03-28T05:58:58.175Z,1015.38
2017-03-28T05:59:38.692Z,1015.39
2017-03-28T06:00:19.193Z,1015.35
2017-03-28T06:00:59.732Z,1015.38
2017-03-28T06:01:40.249Z,1015.35
2017-03-28T06:02:20.756Z,1015.39
2017-03-28T06:03:01.262Z,1015.35
2017-03-28T06:03:41.756Z,1015.34
2017-03-28T06:04:22.281Z,1015.38
2017-03-28T06:05:02.806Z,1015.45
2017-03-28T06:05:43.304Z,1015.38
2017-03-28T06:06:23.825Z,1015.37
2017-03-28T06:07:04.337Z,1015.41
2017-03-28T06:07:44.868Z,1015.42
2017-03-28T06:08:25.361Z,1015.42
2017-03-28T06:09:05.854Z,1015.41
2017-03-28T06:09:46.350Z,1015.39
2017-03-28T06:10:26.875Z,1015.39
2017-03-28T06:11:07.384Z,1015.39
2017-03-28T06:11:47.898Z,1015.38
2017-03-28T06:12:28.450Z,1015.4
2017-03-28T06:13:08.956Z,1015.38
2017-03-28T06:13:49.468Z,1015.38
2017-03-28T06:14:29.990Z,1015.36
2017-03-28T06:15:10.506Z,1015.37
2017-03-28T06:15:51.042Z,1015.42
2017-03-28T06:16:31.522Z,1015.4
2017-03-28T06:17:12.296Z,1015.36
2017-03-28T06:17:52.814Z,1015.4
2017-03-28T06:18:33.315Z,1015.4
2017-03-28T06:19:13.839Z,1015.38
2017-03-28T06:19:54.327Z,1015.4
2017-03-28T06:20:35.433Z,1015.4
2017-03-28T06:21:15.943Z,1015.43
2017-03-28T06:21:56.449Z,1015.38
2017-03-28T06:22:36.990Z,1015.41
2017-03-28T06:23:17.518Z,1015.44
2017-03-28T06:23:58.049Z,1015.44
2017-03-28T06:24:38.588Z,1015.43
2017-03-28T06:25:19.086Z,1015.4
2017-03-28T06:25:59.651Z,1015.41
2017-03-28T06:26:40.190Z,1015.38
2017-03-28T06:27:20.719Z,1015.39
2017-03-28T06:28:01.252Z,1015.41
2017-03-28T06:28:41.760Z,1015.43
2017-03-28T06:29:22.270Z,1015.42
2017-03-28T06:30:02.821Z,1015.42
2017-03-28T06:30:43.287Z,1015.37
2017-03-28T06:31:23.902Z,1015.4
2017-03-28T06:32:04.388Z,1015.4
2017-03-28T06:32:44.901Z,1015.42
2017-03-28T06:33:25.407Z,1015.38
2017-03-28T06:34:05.943Z,1015.42
2017-03-28T06:34:46.456Z,1015.42
2017-03-28T06:35:26.950Z,1015.38
2017-03-28T06:36:07.456Z,1015.37
2017-03-28T06:36:47.972Z,1015.39
2017-03-28T06:37:28.470Z,1015.37
2017-03-28T06:38:08.981Z,1015.43
2017-03-28T06:38:49.502Z,1015.39
2017-03-28T06:39:29.995Z,1015.39
2017-03-28T06:40:10.521Z,1015.38
2017-03-28T06:40:51.020Z,1015.38
2017-03-28T06:41:31.548Z,1015.36
2017-03-28T06:42:12.087Z,1015.38
2017-03-28T06:42:52.607Z,1015.36
2017-03-28T06:43:33.120Z,1015.39
2017-03-28T06:44:13.627Z,1015.4
2017-03-28T06:44:54.161Z,1015.38
2017-03-28T06:45:34.676Z,1015.4
2017-03-28T06:46:15.155Z,1015.38
2017-03-28T06:46:55.679Z,1015.37
2017-03-28T06:47:36.162Z,1015.34
2017-03-28T06:48:16.673Z,1015.41
2017-03-28T06:48:57.179Z,1015.35
2017-03-28T06:49:37.682Z,1015.4
2017-03-28T06:50:18.192Z,1015.41
2017-03-28T06:50:58.700Z,1015.42
2017-03-28T06:51:39.215Z,1015.41
2017-03-28T06:52:19.726Z,1015.38
2017-03-28T06:53:00.238Z,1015.39
2017-03-28T06:53:40.724Z,1015.4
2017-03-28T06:54:21.245Z,1015.42
2017-03-28T06:55:01.752Z,1015.41
2017-03-28T06:55:42.263Z,1015.47
2017-03-28T06:56:22.764Z,1015.46
2017-03-28T06:57:03.260Z,1015.48
2017-03-28T06:57:43.762Z,1015.41
2017-03-28T06:58:24.268Z,1015.42
2017-03-28T06:59:04.781Z,1015.45
2017-03-28T06:59:45.321Z,1015.4
2017-03-28T07:00:25.838Z,1015.41
2017-03-28T07:01:06.336Z,1015.41
2017-03-28T07:01:46.938Z,1015.42
2017-03-28T07:02:27.452Z,1015.43
2017-03-28T07:03:07.974Z,1015.44
2017-03-28T07:03:48.574Z,1015.39
2017-03-28T07:04:29.074Z,1015.36
2017-03-28T07:05:09.586Z,1015.42
2017-03-28T07:05:50.090Z,1015.41
2017-03-28T07:06:30.594Z,1015.4
2017-03-28T07:07:11.103Z,1015.34
2017-03-28T07:07:51.615Z,1015.38
2017-03-28T07:08:32.148Z,1015.39
2017-03-28T07:09:12.644Z,1015.41
2017-03-28T07:09:53.142Z,1015.41
2017-03-28T07:10:33.655Z,1015.41
2017-03-28T07:11:14.161Z,1015.43
2017-03-28T07:11:54.685Z,1015.44
2017-03-28T07:12:35.186Z,1015.48
2017-03-28T07:13:15.716Z,1015.46
2017-03-28T07:13:56.200Z,1015.46
2017-03-28T07:14:36.732Z,1015.45
2017-03-28T07:15:17.257Z,1015.43
2017-03-28T07:15:57.758Z,1015.48
2017-03-28T07:16:38.273Z,1015.49
2017-03-28T07:17:18.783Z,1015.45
2017-03-28T07:17:59.290Z,1015.47
2017-03-28T07:18:39.803Z,1015.5
2017-03-28T07:19:20.344Z,1015.45
2017-03-28T07:20:00.854Z,1015.47
2017-03-28T07:20:41.378Z,1015.47
2017-03-28T07:21:21.877Z,1015.51
2017-03-28T07:22:02.385Z,1015.51
2017-03-28T07:22:42.899Z,1015.57
2017-03-28T07:23:23.445Z,1015.53
2017-03-28T07:24:03.927Z,1015.54
2017-03-28T07:24:44.429Z,1015.51
2017-03-28T07:25:24.941Z,1015.58
2017-03-28T07:26:05.463Z,1015.55
2017-03-28T07:26:45.967Z,1015.58
2017-03-28T07:27:26.438Z,1015.56
2017-03-28T07:28:06.946Z,1015.6
2017-03-28T07:28:47.481Z,1015.6
2017-03-28T07:29:27.996Z,1015.6
2017-03-28T07:30:08.510Z,1015.58
2017-03-28T07:30:49.027Z,1015.61
2017-03-28T07:31:29.544Z,1015.6
2017-03-28T07:32:10.079Z,1015.6
2017-03-28T07:32:50.579Z,1015.65
2017-03-28T07:33:31.092Z,1015.61
2017-03-28T07:34:11.615Z,1015.59
2017-03-28T07:34:52.099Z,1015.62
2017-03-28T07:35:32.622Z,1015.63
2017-03-28T07:36:13.131Z,1015.65
2017-03-28T07:36:53.626Z,1015.63
2017-03-28T07:37:34.143Z,1015.65
2017-03-28T07:38:14.682Z,1015.67
2017-03-28T07:38:55.191Z,1015.64
2017-03-28T07:39:35.722Z,1015.65
2017-03-28T07:40:16.261Z,1015.63
2017-03-28T07:40:56.761Z,1015.59
2017-03-28T07:41:37.273Z,1015.57
2017-03-28T07:42:17.789Z,1015.55
2017-03-28T07:42:58.322Z,1015.59
2017-03-28T07:43:38.821Z,1015.59
2017-03-28T07:44:19.343Z,1015.57
2017-03-28T07:44:59.874Z,1015.59
2017-03-28T07:45:40.385Z,1015.54
2017-03-28T07:46:20.925Z,1015.59
2017-03-28T07:47:01.459Z,1015.57
2017-03-28T07:47:41.943Z,1015.59
2017-03-28T07:48:22.439Z,1015.58
2017-03-28T07:49:02.958Z,1015.57
2017-03-28T07:49:43.464Z,1015.56
2017-03-28T07:50:23.978Z,1015.59
2017-03-28T07:51:04.497Z,1015.61
2017-03-28T07:51:45.041Z,1015.57
2017-03-28T07:52:25.537Z,1015.55
2017-03-28T07:53:06.056Z,1015.54
2017-03-28T07:53:46.560Z,1015.55
2017-03-28T07:54:27.078Z,1015.58
2017-03-28T07:55:07.589Z,1015.52
2017-03-28T07:55:48.102Z,1015.5
2017-03-28T07:56:28.623Z,1015.51
2017-03-28T07:57:09.143Z,1015.5
2017-03-28T07:57:49.654Z,1015.55
2017-03-28T07:58:30.178Z,1015.58
2017-03-28T07:59:10.690Z,1015.59
2017-03-28T07:59:51.205Z,1015.58
2017-03-28T08:00:31.726Z,1015.6
2017-03-28T08:01:12.228Z,1015.66
2017-03-28T08:01:52.747Z,1015.61
2017-03-28T08:02:33.276Z,1015.61
2017-03-28T08:03:13.813Z,1015.6
2017-03-28T08:03:54.342Z,1015.59
2017-03-28T08:04:34.832Z,1015.66
2017-03-28T08:05:15.341Z,1015.64
2017-03-28T08:05:55.853Z,1015.66
2017-03-28T08:06:36.361Z,1015.62
2017-03-28T08:07:17.042Z,1015.66
2017-03-28T08:07:57.553Z,1015.64
2017-03-28T08:08:38.071Z,1015.62
2017-03-28T08:09:18.591Z,1015.68
2017-03-28T08:09:59.151Z,1015.64
2017-03-28T08:10:39.670Z,1015.67
2017-03-28T08:11:20.209Z,1015.69
2017-03-28T08:12:00.732Z,1015.67
2017-03-28T08:12:41.218Z,1015.66
2017-03-28T08:13:21.719Z,1015.65
2017-03-28T08:14:02.248Z,1015.67